Time;durP1;ratioP1;P1;durP2;ratioP2;P2;SDS_P1;SDS_P2;PMS_P1;PMS_P2;Temp;Humidity;BMP_temperature;BMP_pressure;BME280_temperature;BME280_humidity;BME280_pressure;Samples;Min_cycle;Max_cycle;Signal;HPM_P1;HPM_P2
2022/08/07 00:01:34;;;;;;;10.05;8.43;;;;;;;;;;5021802;28;20782;-70
2022/08/07 00:03:59;;;;;;;10.55;8.02;;;;;;;;;;5005908;28;20352;-72
2022/08/07 00:06:25;;;;;;;11.73;8.40;;;;;;;;;;5005486;28;20593;-72
2022/08/07 00:08:50;;;;;;;11.05;8.32;;;;;;;;;;5009006;28;20040;-70
2022/08/07 00:11:16;;;;;;;11.70;8.40;;;;;;;;;;5005531;28;20036;-70
2022/08/07 00:13:44;;;;;;;11.63;7.82;;;;;;;;;;5020465;28;20624;-70
2022/08/07 00:16:10;;;;;;;12.88;8.27;;;;;;;;;;5008900;28;20274;-78
2022/08/07 00:18:36;;;;;;;11.05;7.80;;;;;;;;;;5022859;28;20052;-78
2022/08/07 00:21:04;;;;;;;11.23;8.07;;;;;;;;;;5015297;28;20183;-79
2022/08/07 00:23:30;;;;;;;10.40;7.65;;;;;;;;;;5021336;28;20029;-79
2022/08/07 00:25:57;;;;;;;12.10;8.15;;;;;;;;;;5011086;28;20074;-71
2022/08/07 00:28:24;;;;;;;9.93;7.55;;;;;;;;;;5004736;28;20052;-72
2022/08/07 00:30:50;;;;;;;10.45;7.80;;;;;;;;;;5019721;28;20523;-72
2022/08/07 00:33:15;;;;;;;12.00;7.47;;;;;;;;;;5003422;28;20044;-72
2022/08/07 00:35:41;;;;;;;12.05;7.53;;;;;;;;;;5006745;28;20041;-70
2022/08/07 00:38:07;;;;;;;11.00;8.40;;;;;;;;;;5006747;28;20159;-71
2022/08/07 00:40:33;;;;;;;10.00;7.30;;;;;;;;;;5005978;28;20041;-71
2022/08/07 00:42:59;;;;;;;12.30;8.05;;;;;;;;;;5005466;28;20045;-71
2022/08/07 00:45:27;;;;;;;11.32;7.15;;;;;;;;;;5004985;28;21064;-71
2022/08/07 00:47:52;;;;;;;9.05;7.47;;;;;;;;;;5004891;28;21901;-71
2022/08/07 00:50:18;;;;;;;11.57;7.65;;;;;;;;;;5004595;28;20052;-71
2022/08/07 00:52:45;;;;;;;11.13;7.55;;;;;;;;;;5021276;28;20140;-71
2022/08/07 00:55:11;;;;;;;9.10;6.95;;;;;;;;;;5005844;28;20092;-71
2022/08/07 00:57:39;;;;;;;9.20;7.00;;;;;;;;;;5006311;28;20280;-71
2022/08/07 01:00:05;;;;;;;9.45;6.93;;;;;;;;;;5020528;28;20541;-71
2022/08/07 01:02:31;;;;;;;9.15;6.80;;;;;;;;;;5004190;28;20029;-71
2022/08/07 01:04:57;;;;;;;10.70;7.65;;;;;;;;;;5004544;28;20277;-71
2022/08/07 01:07:23;;;;;;;8.95;7.05;;;;;;;;;;5005375;28;20033;-71
2022/08/07 01:09:48;;;;;;;7.95;6.40;;;;;;;;;;5017672;28;20061;-71
2022/08/07 01:12:19;;;;;;;8.73;6.30;;;;;;;;;;5031310;28;20106;-71
2022/08/07 01:14:44;;;;;;;10.18;7.10;;;;;;;;;;5019870;28;20025;-72
2022/08/07 01:17:10;;;;;;;9.85;6.82;;;;;;;;;;5028504;28;20171;-71
2022/08/07 01:19:36;;;;;;;10.13;6.78;;;;;;;;;;5014842;28;20198;-70
2022/08/07 01:22:04;;;;;;;9.30;6.68;;;;;;;;;;5016988;28;20375;-71
2022/08/07 01:24:29;;;;;;;9.85;6.43;;;;;;;;;;5015577;28;20526;-70
2022/08/07 01:26:57;;;;;;;9.20;6.68;;;;;;;;;;5012942;28;20285;-72
2022/08/07 01:29:23;;;;;;;9.68;6.30;;;;;;;;;;5017352;28;20178;-70
2022/08/07 01:31:49;;;;;;;10.10;6.90;;;;;;;;;;5014346;28;20417;-73
2022/08/07 01:34:16;;;;;;;9.30;5.88;;;;;;;;;;5020865;28;20408;-71
2022/08/07 01:36:42;;;;;;;7.70;6.07;;;;;;;;;;5018562;28;20606;-73
2022/08/07 01:39:07;;;;;;;7.43;5.95;;;;;;;;;;5061410;27;20036;-79
2022/08/07 01:41:33;;;;;;;8.95;6.53;;;;;;;;;;5027165;28;20045;-78
2022/08/07 01:43:58;;;;;;;9.05;6.40;;;;;;;;;;5032158;28;20408;-78
2022/08/07 01:46:24;;;;;;;8.40;6.20;;;;;;;;;;5035176;28;20032;-78
2022/08/07 01:48:49;;;;;;;6.72;5.47;;;;;;;;;;5032108;28;20229;-79
2022/08/07 01:51:22;;;;;;;7.88;5.85;;;;;;;;;;5043510;28;20036;-77
2022/08/07 01:53:54;;;;;;;8.57;5.95;;;;;;;;;;5044428;28;20032;-79
2022/08/07 01:56:22;;;;;;;7.35;6.18;;;;;;;;;;5040843;28;20582;-78
2022/08/07 01:58:59;;;;;;;9.50;5.60;;;;;;;;;;5032760;28;20304;-77
2022/08/07 02:01:26;;;;;;;8.63;6.18;;;;;;;;;;5028249;28;20083;-78
2022/08/07 02:03:58;;;;;;;6.40;5.35;;;;;;;;;;5031227;28;20071;-78
2022/08/07 02:06:24;;;;;;;8.18;5.78;;;;;;;;;;5037745;28;20055;-77
2022/08/07 02:08:53;;;;;;;9.73;5.88;;;;;;;;;;5060230;28;20047;-79
2022/08/07 02:11:18;;;;;;;9.70;5.68;;;;;;;;;;5028640;28;20037;-78
2022/08/07 02:13:44;;;;;;;8.30;5.80;;;;;;;;;;5026847;28;20516;-79
2022/08/07 02:16:10;;;;;;;7.80;5.90;;;;;;;;;;5026216;28;20037;-78
2022/08/07 02:18:37;;;;;;;7.90;5.57;;;;;;;;;;5035030;28;20181;-79
2022/08/07 02:21:04;;;;;;;7.93;5.75;;;;;;;;;;5028738;28;20043;-78
2022/08/07 02:23:32;;;;;;;7.50;6.10;;;;;;;;;;5028394;28;20048;-77
2022/08/07 02:25:58;;;;;;;7.80;5.82;;;;;;;;;;5025608;28;20053;-71
2022/08/07 02:28:25;;;;;;;7.35;5.82;;;;;;;;;;5018653;28;20068;-71
2022/08/07 02:30:52;;;;;;;7.32;5.70;;;;;;;;;;5018370;28;20853;-72
2022/08/07 02:33:18;;;;;;;8.10;5.82;;;;;;;;;;5018625;28;20037;-71
2022/08/07 02:35:45;;;;;;;9.93;6.13;;;;;;;;;;5029674;28;20121;-71
2022/08/07 02:38:11;;;;;;;9.18;5.82;;;;;;;;;;5016651;28;20125;-71
2022/08/07 02:40:39;;;;;;;8.75;6.22;;;;;;;;;;5018153;28;20041;-71
2022/08/07 02:43:05;;;;;;;7.38;5.65;;;;;;;;;;5021350;28;20137;-71
2022/08/07 02:45:31;;;;;;;9.80;6.10;;;;;;;;;;5017764;28;20518;-71
2022/08/07 02:47:57;;;;;;;8.70;6.30;;;;;;;;;;5015096;28;20107;-71
2022/08/07 02:50:22;;;;;;;8.50;6.45;;;;;;;;;;5016067;28;20048;-71
2022/08/07 02:52:55;;;;;;;8.80;6.32;;;;;;;;;;5032351;28;20037;-71
2022/08/07 02:55:21;;;;;;;9.85;6.63;;;;;;;;;;5019365;28;20260;-72
2022/08/07 02:57:51;;;;;;;8.55;6.38;;;;;;;;;;5005874;28;20315;-72
2022/08/07 03:00:16;;;;;;;8.73;5.90;;;;;;;;;;5017562;28;20037;-71
2022/08/07 03:02:44;;;;;;;9.75;6.57;;;;;;;;;;5014224;28;20747;-71
2022/08/07 03:05:10;;;;;;;9.35;6.03;;;;;;;;;;5021203;28;20039;-71
2022/08/07 03:07:36;;;;;;;10.13;6.30;;;;;;;;;;5016306;28;20063;-71
2022/08/07 03:10:02;;;;;;;8.85;6.53;;;;;;;;;;5023091;28;20029;-71
2022/08/07 03:12:35;;;;;;;9.68;7.07;;;;;;;;;;5017668;28;20055;-71
2022/08/07 03:15:01;;;;;;;8.05;6.80;;;;;;;;;;5016039;28;20781;-70
2022/08/07 03:17:27;;;;;;;9.60;6.80;;;;;;;;;;5018384;28;20033;-71
2022/08/07 03:19:53;;;;;;;12.43;6.63;;;;;;;;;;5015238;27;20044;-71
2022/08/07 03:22:20;;;;;;;10.57;7.05;;;;;;;;;;5013891;27;20052;-71
2022/08/07 03:24:46;;;;;;;8.18;6.05;;;;;;;;;;5016161;27;20056;-71
2022/08/07 03:27:13;;;;;;;8.95;6.38;;;;;;;;;;5015358;27;20588;-71
2022/08/07 03:29:44;;;;;;;8.77;6.65;;;;;;;;;;5017399;27;20658;-71
2022/08/07 03:32:10;;;;;;;9.40;7.03;;;;;;;;;;5017157;27;20153;-73
2022/08/07 03:34:39;;;;;;;7.68;6.30;;;;;;;;;;5049981;27;20218;-71
2022/08/07 03:37:06;;;;;;;10.68;7.35;;;;;;;;;;5014425;27;20730;-70
2022/08/07 03:39:33;;;;;;;11.00;7.35;;;;;;;;;;5019761;27;20382;-71
2022/08/07 03:41:58;;;;;;;11.45;7.22;;;;;;;;;;5013942;27;20226;-71
2022/08/07 03:44:25;;;;;;;10.13;7.05;;;;;;;;;;5009179;28;20032;-71
2022/08/07 03:46:50;;;;;;;11.13;7.95;;;;;;;;;;5014776;27;20282;-71
2022/08/07 03:49:18;;;;;;;12.85;7.43;;;;;;;;;;5013501;27;20461;-71
2022/08/07 03:51:43;;;;;;;11.02;7.40;;;;;;;;;;5047807;27;20033;-71
2022/08/07 03:54:09;;;;;;;10.38;7.55;;;;;;;;;;5015032;27;20036;-72
2022/08/07 03:56:37;;;;;;;9.93;7.35;;;;;;;;;;5012203;27;20234;-71
2022/08/07 03:59:03;;;;;;;10.35;6.97;;;;;;;;;;5021717;28;20040;-71
2022/08/07 04:01:29;;;;;;;8.90;6.70;;;;;;;;;;5010167;28;20845;-71
2022/08/07 04:03:54;;;;;;;10.45;7.43;;;;;;;;;;5016920;28;20036;-78
2022/08/07 04:06:20;;;;;;;12.32;8.10;;;;;;;;;;5021147;28;20268;-79
2022/08/07 04:08:46;;;;;;;13.63;8.18;;;;;;;;;;5022143;28;20141;-78
2022/08/07 04:11:12;;;;;;;10.98;8.18;;;;;;;;;;5021815;28;21060;-77
2022/08/07 04:13:38;;;;;;;11.90;7.85;;;;;;;;;;5042488;27;20112;-77
2022/08/07 04:16:03;;;;;;;11.52;8.48;;;;;;;;;;5019746;28;20037;-78
2022/08/07 04:18:29;;;;;;;9.85;7.28;;;;;;;;;;5030206;28;20238;-78
2022/08/07 04:20:54;;;;;;;11.15;7.93;;;;;;;;;;5033049;28;20040;-78
2022/08/07 04:23:20;;;;;;;11.27;8.02;;;;;;;;;;5017796;28;20607;-78
2022/08/07 04:25:48;;;;;;;9.82;7.72;;;;;;;;;;5007087;28;20052;-78
2022/08/07 04:28:14;;;;;;;12.05;8.07;;;;;;;;;;5018111;28;20898;-72
2022/08/07 04:30:39;;;;;;;13.27;8.90;;;;;;;;;;5016427;28;20079;-72
2022/08/07 04:33:08;;;;;;;10.57;7.95;;;;;;;;;;5015035;28;20430;-72
2022/08/07 04:35:37;;;;;;;10.32;8.00;;;;;;;;;;5014643;28;20193;-70
2022/08/07 04:38:06;;;;;;;9.73;7.65;;;;;;;;;;5017640;28;22279;-73
2022/08/07 04:40:32;;;;;;;11.23;8.75;;;;;;;;;;5016905;28;20045;-72
2022/08/07 04:42:57;;;;;;;9.00;7.43;;;;;;;;;;5014926;28;20146;-73
2022/08/07 04:45:26;;;;;;;11.75;8.00;;;;;;;;;;5017545;28;20029;-78
2022/08/07 04:47:56;;;;;;;12.85;8.70;;;;;;;;;;5020510;28;20118;-77
2022/08/07 04:50:38;;;;;;;10.20;7.55;;;;;;;;;;5026382;28;20966;-77
2022/08/07 04:53:06;;;;;;;11.73;8.68;;;;;;;;;;5033703;28;20067;-77
2022/08/07 04:55:35;;;;;;;11.35;7.78;;;;;;;;;;5033560;28;22302;-77
2022/08/07 04:58:09;;;;;;;10.98;8.27;;;;;;;;;;5001072;28;20128;-80
2022/08/07 05:00:58;;;;;;;12.45;8.90;;;;;;;;;;5018900;28;20221;-77
2022/08/07 05:03:26;;;;;;;12.02;9.25;;;;;;;;;;5008921;28;20159;-77
2022/08/07 05:05:59;;;;;;;13.05;9.02;;;;;;;;;;5017351;28;20512;-71
2022/08/07 05:08:36;;;;;;;11.32;8.75;;;;;;;;;;5020033;28;20729;-71
2022/08/07 05:11:08;;;;;;;11.43;8.98;;;;;;;;;;5022376;28;20485;-72
2022/08/07 05:13:35;;;;;;;;;;;;;;;;;;5018975;28;20145;-71
2022/08/07 05:16:06;;;;;;;12.77;9.00;;;;;;;;;;5036366;28;19916;-70
2022/08/07 05:18:34;;;;;;;14.45;9.25;;;;;;;;;;5019822;28;20047;-79
2022/08/07 05:21:01;;;;;;;12.40;8.77;;;;;;;;;;5021419;28;20461;-77
2022/08/07 05:23:27;;;;;;;14.27;9.15;;;;;;;;;;5021883;28;20479;-78
2022/08/07 05:25:53;;;;;;;12.23;8.85;;;;;;;;;;5024060;28;20444;-77
2022/08/07 05:28:18;;;;;;;12.52;9.05;;;;;;;;;;5012139;28;20734;-78
2022/08/07 05:30:44;;;;;;;13.23;8.98;;;;;;;;;;5022927;28;20519;-77
2022/08/07 05:33:11;;;;;;;10.88;8.32;;;;;;;;;;5038486;28;20075;-78
2022/08/07 05:35:37;;;;;;;11.65;8.98;;;;;;;;;;5022439;28;20037;-76
2022/08/07 05:38:03;;;;;;;12.82;8.40;;;;;;;;;;5026263;28;20275;-78
2022/08/07 05:40:33;;;;;;;11.77;8.75;;;;;;;;;;5035691;28;20705;-77
2022/08/07 05:43:01;;;;;;;11.95;8.90;;;;;;;;;;5020898;28;20695;-77
2022/08/07 05:45:30;;;;;;;10.82;8.43;;;;;;;;;;5022490;28;20570;-78
2022/08/07 05:47:55;;;;;;;16.17;8.68;;;;;;;;;;5019569;28;20032;-71
2022/08/07 05:50:24;;;;;;;9.85;7.80;;;;;;;;;;5018338;28;20652;-71
2022/08/07 05:52:49;;;;;;;11.05;8.30;;;;;;;;;;5022197;28;20033;-71
2022/08/07 05:55:14;;;;;;;12.50;8.07;;;;;;;;;;5023657;28;20137;-73
2022/08/07 05:57:41;;;;;;;13.48;9.10;;;;;;;;;;5020236;28;20055;-71
2022/08/07 06:00:07;;;;;;;11.35;9.20;;;;;;;;;;5017742;28;20039;-77
2022/08/07 06:02:36;;;;;;;14.88;9.57;;;;;;;;;;5020407;28;20245;-77
2022/08/07 06:05:05;;;;;;;13.65;9.48;;;;;;;;;;5022127;28;20429;-76
2022/08/07 06:07:32;;;;;;;12.25;9.40;;;;;;;;;;5019721;28;20036;-78
2022/08/07 06:09:58;;;;;;;12.13;9.02;;;;;;;;;;5013428;28;20436;-76
2022/08/07 06:12:23;;;;;;;12.45;8.73;;;;;;;;;;5021419;28;20032;-76
2022/08/07 06:14:52;;;;;;;11.52;8.80;;;;;;;;;;5021201;28;20114;-77
2022/08/07 06:17:18;;;;;;;12.52;8.60;;;;;;;;;;5017816;28;20036;-77
2022/08/07 06:19:46;;;;;;;9.68;8.13;;;;;;;;;;5023230;28;20028;-77
2022/08/07 06:22:12;;;;;;;10.85;8.07;;;;;;;;;;5020562;28;20491;-78
2022/08/07 06:24:37;;;;;;;12.93;9.13;;;;;;;;;;5025228;28;20491;-77
2022/08/07 06:27:02;;;;;;;12.57;8.30;;;;;;;;;;5020649;28;20545;-79
2022/08/07 06:29:28;;;;;;;10.55;7.07;;;;;;;;;;5019323;28;20303;-77
2022/08/07 06:31:54;;;;;;;11.00;7.88;;;;;;;;;;5034829;28;20033;-75
2022/08/07 06:34:22;;;;;;;7.97;5.85;;;;;;;;;;5016802;28;20062;-76
2022/08/07 06:36:50;;;;;;;10.18;6.53;;;;;;;;;;5018154;28;20082;-76
2022/08/07 06:39:16;;;;;;;10.13;6.15;;;;;;;;;;5033263;28;20378;-76
2022/08/07 06:41:43;;;;;;;8.68;5.15;;;;;;;;;;5019302;28;20045;-78
2022/08/07 06:44:10;;;;;;;6.93;5.13;;;;;;;;;;5025442;28;20094;-77
2022/08/07 06:46:36;;;;;;;7.03;5.00;;;;;;;;;;5021392;28;20654;-77
2022/08/07 06:49:02;;;;;;;10.93;4.80;;;;;;;;;;5008625;28;20647;-78
2022/08/07 06:51:30;;;;;;;9.38;5.45;;;;;;;;;;5018595;28;20631;-76
2022/08/07 06:54:02;;;;;;;9.00;5.10;;;;;;;;;;5020782;28;20543;-76
2022/08/07 06:56:46;;;;;;;6.65;4.55;;;;;;;;;;5019592;28;20032;-77
2022/08/07 06:59:16;;;;;;;7.60;3.88;;;;;;;;;;5020293;28;20032;-77
2022/08/07 07:01:43;;;;;;;7.22;4.32;;;;;;;;;;5019067;28;20045;-77
2022/08/07 07:04:08;;;;;;;7.15;4.57;;;;;;;;;;5035152;28;20043;-76
2022/08/07 07:06:34;;;;;;;9.82;4.40;;;;;;;;;;5034298;28;20048;-77
2022/08/07 07:09:15;;;;;;;8.27;4.72;;;;;;;;;;5030656;27;20591;-76
2022/08/07 07:11:45;;;;;;;11.50;4.60;;;;;;;;;;5026914;27;20139;-77
2022/08/07 07:14:13;;;;;;;8.43;4.03;;;;;;;;;;5020211;28;20083;-77
2022/08/07 07:16:41;;;;;;;5.68;3.65;;;;;;;;;;5019636;28;20646;-76
2022/08/07 07:19:07;;;;;;;7.82;3.05;;;;;;;;;;5021122;28;20043;-76
2022/08/07 07:21:37;;;;;;;8.43;3.53;;;;;;;;;;5018452;28;20502;-77
2022/08/07 07:24:02;;;;;;;13.50;3.22;;;;;;;;;;5013490;28;20678;-76
2022/08/07 07:26:29;;;;;;;6.85;2.75;;;;;;;;;;5049812;27;20036;-76
2022/08/07 07:28:59;;;;;;;7.15;2.78;;;;;;;;;;5023466;28;20051;-78
2022/08/07 07:31:40;;;;;;;6.30;2.58;;;;;;;;;;5020964;28;20557;-81
2022/08/07 07:34:08;;;;;;;7.72;2.30;;;;;;;;;;5017422;28;20371;-74
2022/08/07 07:36:33;;;;;;;4.32;2.00;;;;;;;;;;5020546;28;20064;-74
2022/08/07 07:38:59;;;;;;;3.85;2.03;;;;;;;;;;5033174;28;20036;-75
2022/08/07 07:41:27;;;;;;;5.18;1.80;;;;;;;;;;5033217;28;20383;-74
2022/08/07 07:43:54;;;;;;;3.47;1.45;;;;;;;;;;5019714;28;20356;-72
2022/08/07 07:46:22;;;;;;;5.25;1.90;;;;;;;;;;5020498;28;20787;-74
2022/08/07 07:48:48;;;;;;;4.20;1.50;;;;;;;;;;5007286;28;20507;-73
2022/08/07 07:51:17;;;;;;;3.53;1.42;;;;;;;;;;5018684;28;20036;-74
2022/08/07 07:53:44;;;;;;;3.22;1.40;;;;;;;;;;5019109;28;20047;-74
2022/08/07 07:56:13;;;;;;;4.22;1.48;;;;;;;;;;5016899;28;20134;-74
2022/08/07 07:58:39;;;;;;;2.50;1.23;;;;;;;;;;5015102;28;22112;-75
2022/08/07 08:01:10;;;;;;;3.90;1.30;;;;;;;;;;5020308;28;20363;-74
2022/08/07 08:03:36;;;;;;;5.88;1.25;;;;;;;;;;5030872;28;20151;-74
2022/08/07 08:06:02;;;;;;;3.50;1.30;;;;;;;;;;5014943;28;20029;-73
2022/08/07 08:08:29;;;;;;;3.83;1.55;;;;;;;;;;5018296;28;20036;-76
2022/08/07 08:10:55;;;;;;;6.35;1.48;;;;;;;;;;5015764;28;20095;-76
2022/08/07 08:13:23;;;;;;;2.78;1.20;;;;;;;;;;5018329;28;21821;-76
2022/08/07 08:15:49;;;;;;;6.47;1.42;;;;;;;;;;5018489;28;20064;-75
2022/08/07 08:18:15;;;;;;;5.28;1.40;;;;;;;;;;5033386;28;20024;-76
2022/08/07 08:20:43;;;;;;;3.67;1.27;;;;;;;;;;5021071;28;20630;-77
2022/08/07 08:28:40;;;;;;;3.50;1.60;;;;;;;;;;5016929;28;20048;-76
2022/08/07 08:31:07;;;;;;;3.95;1.42;;;;;;;;;;5017383;28;20105;-74
2022/08/07 08:33:37;;;;;;;3.67;1.00;;;;;;;;;;5033212;28;20426;-75
2022/08/07 08:36:04;;;;;;;2.60;1.13;;;;;;;;;;5021316;28;20309;-76
2022/08/07 08:38:34;;;;;;;2.67;1.25;;;;;;;;;;5016986;28;20068;-75
2022/08/07 08:41:03;;;;;;;5.55;1.80;;;;;;;;;;5014889;28;20288;-71
2022/08/07 08:43:44;;;;;;;2.90;1.35;;;;;;;;;;5017529;28;20068;-70
2022/08/07 08:46:09;;;;;;;5.65;1.35;;;;;;;;;;5016680;28;20036;-70
2022/08/07 08:48:50;;;;;;;3.13;1.30;;;;;;;;;;5017085;28;20854;-69
2022/08/07 08:51:18;;;;;;;2.78;1.25;;;;;;;;;;5018100;28;20051;-69
2022/08/07 08:53:56;;;;;;;2.65;1.10;;;;;;;;;;5015245;28;20109;-70
2022/08/07 08:56:31;;;;;;;5.45;1.30;;;;;;;;;;5016078;28;20118;-70
2022/08/07 08:59:06;;;;;;;5.25;1.60;;;;;;;;;;5016188;28;20049;-69
2022/08/07 09:01:48;;;;;;;3.50;1.35;;;;;;;;;;5018123;28;20466;-69
2022/08/07 09:04:21;;;;;;;2.70;1.13;;;;;;;;;;5018043;28;20125;-69
2022/08/07 09:07:02;;;;;;;4.22;1.55;;;;;;;;;;5020290;28;20607;-68
2022/08/07 09:09:27;;;;;;;3.30;1.30;;;;;;;;;;5014993;28;20515;-71
2022/08/07 09:11:57;;;;;;;6.25;1.60;;;;;;;;;;5017543;28;20033;-75
2022/08/07 09:14:41;;;;;;;5.15;1.45;;;;;;;;;;5018081;28;20336;-74
2022/08/07 09:17:20;;;;;;;2.72;1.38;;;;;;;;;;5018675;28;20618;-75
2022/08/07 09:19:56;;;;;;;4.90;1.40;;;;;;;;;;5016838;28;20179;-75
2022/08/07 09:22:31;;;;;;;2.47;1.48;;;;;;;;;;5017366;28;20380;-74
2022/08/07 09:25:03;;;;;;;4.28;1.40;;;;;;;;;;5017145;28;20224;-73
2022/08/07 09:27:37;;;;;;;6.35;1.52;;;;;;;;;;5016274;28;20446;-75
2022/08/07 09:30:02;;;;;;;2.88;1.50;;;;;;;;;;5018112;28;20485;-75
2022/08/07 09:32:30;;;;;;;3.72;1.50;;;;;;;;;;5031548;28;20060;-72
2022/08/07 09:35:17;;;;;;;2.50;1.58;;;;;;;;;;5016600;28;20106;-74
2022/08/07 09:38:00;;;;;;;2.80;1.63;;;;;;;;;;5017540;28;20080;-68
2022/08/07 09:40:31;;;;;;;4.25;1.63;;;;;;;;;;4998979;28;20369;-69
2022/08/07 09:43:21;;;;;;;1.90;1.52;;;;;;;;;;5017342;28;20445;-69
2022/08/07 09:46:00;;;;;;;3.67;2.15;;;;;;;;;;5031672;28;20052;-68
2022/08/07 09:48:44;;;;;;;4.28;2.72;;;;;;;;;;5014033;28;20105;-68
2022/08/07 09:51:09;;;;;;;3.28;2.30;;;;;;;;;;5017703;28;20363;-67
2022/08/07 09:53:37;;;;;;;5.18;2.20;;;;;;;;;;5033205;28;20624;-70
2022/08/07 09:56:23;;;;;;;2.97;2.15;;;;;;;;;;5018611;28;20364;-68
2022/08/07 09:58:59;;;;;;;3.13;2.00;;;;;;;;;;5007236;28;20444;-68
2022/08/07 10:01:24;;;;;;;5.55;2.40;;;;;;;;;;5017908;28;20092;-67
2022/08/07 10:03:50;;;;;;;5.60;2.60;;;;;;;;;;5014510;28;20033;-69
2022/08/07 10:06:33;;;;;;;5.38;2.30;;;;;;;;;;5014163;28;20043;-70
2022/08/07 10:09:15;;;;;;;4.63;2.08;;;;;;;;;;5015647;28;22168;-68
2022/08/07 10:11:47;;;;;;;5.18;2.20;;;;;;;;;;5031715;28;20095;-67
2022/08/07 10:14:19;;;;;;;3.10;2.20;;;;;;;;;;5016220;27;20033;-69
2022/08/07 10:16:44;;;;;;;;;;;;;;;;;;5010011;28;20283;-69
2022/08/07 10:19:18;;;;;;;3.90;2.10;;;;;;;;;;5019742;28;20612;-68
2022/08/07 10:22:10;;;;;;;2.75;2.30;;;;;;;;;;5017411;28;20225;-69
2022/08/07 10:24:44;;;;;;;2.88;2.10;;;;;;;;;;4996053;28;20075;-68
2022/08/07 10:27:28;;;;;;;4.03;1.92;;;;;;;;;;5016494;28;20130;-69
2022/08/07 10:30:08;;;;;;;5.03;2.00;;;;;;;;;;5017116;28;20351;-69
2022/08/07 10:32:56;;;;;;;5.65;2.00;;;;;;;;;;5016958;28;20032;-69
2022/08/07 10:35:40;;;;;;;2.42;1.80;;;;;;;;;;5015994;28;20040;-67
2022/08/07 10:38:25;;;;;;;5.10;2.10;;;;;;;;;;5022503;28;20085;-68
2022/08/07 10:40:56;;;;;;;4.20;1.92;;;;;;;;;;5030034;28;20138;-68
2022/08/07 10:43:25;;;;;;;5.20;2.08;;;;;;;;;;5026814;28;20505;-68
2022/08/07 10:45:56;;;;;;;2.92;1.98;;;;;;;;;;5017417;28;20540;-70
2022/08/07 10:48:21;;;;;;;4.15;1.75;;;;;;;;;;5015797;28;20029;-69
2022/08/07 10:50:50;;;;;;;3.20;1.95;;;;;;;;;;5017473;28;21922;-71
2022/08/07 10:53:20;;;;;;;3.30;1.63;;;;;;;;;;5018818;28;20571;-70
2022/08/07 10:55:50;;;;;;;6.28;1.90;;;;;;;;;;5016931;28;20426;-69
2022/08/07 10:58:34;;;;;;;2.97;1.80;;;;;;;;;;5015990;28;20041;-69
2022/08/07 11:01:12;;;;;;;5.00;1.55;;;;;;;;;;5032425;28;20040;-71
2022/08/07 11:03:40;;;;;;;6.10;1.75;;;;;;;;;;5032652;28;20067;-69
2022/08/07 11:06:14;;;;;;;4.00;1.65;;;;;;;;;;5017212;28;20044;-70
2022/08/07 11:08:40;;;;;;;2.70;1.70;;;;;;;;;;5026738;28;20037;-71
2022/08/07 11:11:20;;;;;;;4.10;1.85;;;;;;;;;;5035720;28;20068;-69
2022/08/07 11:14:11;;;;;;;4.60;1.75;;;;;;;;;;5031820;28;20497;-69
2022/08/07 11:16:52;;;;;;;4.05;1.85;;;;;;;;;;5018668;28;20285;-69
2022/08/07 11:19:18;;;;;;;5.03;1.80;;;;;;;;;;5021287;28;20813;-69
2022/08/07 11:21:52;;;;;;;5.47;1.95;;;;;;;;;;5019335;28;20059;-70
2022/08/07 11:24:38;;;;;;;4.30;1.63;;;;;;;;;;5014332;28;20043;-69
2022/08/07 11:27:26;;;;;;;3.95;1.90;;;;;;;;;;5018359;28;20349;-69
2022/08/07 11:29:57;;;;;;;3.95;1.90;;;;;;;;;;4988718;28;20212;-69
2022/08/07 11:32:25;;;;;;;3.60;1.90;;;;;;;;;;5015178;27;20036;-68
2022/08/07 11:35:10;;;;;;;5.47;1.92;;;;;;;;;;5017281;28;20258;-72
2022/08/07 11:37:39;;;;;;;5.07;1.30;;;;;;;;;;5019102;28;20714;-69
2022/08/07 11:40:07;;;;;;;2.85;1.80;;;;;;;;;;5017722;28;20707;-69
2022/08/07 11:42:39;;;;;;;3.38;1.27;;;;;;;;;;5019032;28;20159;-70
2022/08/07 11:45:10;;;;;;;3.47;1.30;;;;;;;;;;5016177;28;20542;-68
2022/08/07 11:47:38;;;;;;;;;;;;;;;;;;5018280;28;20376;-69
2022/08/07 11:50:19;;;;;;;3.58;1.77;;;;;;;;;;5023283;28;19922;-70
2022/08/07 11:53:02;;;;;;;4.28;1.75;;;;;;;;;;5016313;28;20048;-69
2022/08/07 11:55:46;;;;;;;5.35;1.88;;;;;;;;;;5017688;28;20659;-68
2022/08/07 11:58:26;;;;;;;3.97;1.60;;;;;;;;;;5016962;28;20121;-70
2022/08/07 12:01:00;;;;;;;5.45;1.80;;;;;;;;;;5032732;28;20563;-69
2022/08/07 12:03:45;;;;;;;3.63;1.40;;;;;;;;;;5015035;28;20047;-70
2022/08/07 12:06:21;;;;;;;6.43;2.00;;;;;;;;;;5023240;28;20098;-70
2022/08/07 12:08:46;;;;;;;2.72;1.60;;;;;;;;;;5016997;28;20065;-70
2022/08/07 12:11:18;;;;;;;2.90;1.70;;;;;;;;;;5019006;28;21650;-69
2022/08/07 12:14:00;;;;;;;5.22;1.80;;;;;;;;;;5018421;28;20235;-69
2022/08/07 12:16:33;;;;;;;4.15;2.17;;;;;;;;;;5015286;28;20315;-70
2022/08/07 12:19:17;;;;;;;4.30;1.83;;;;;;;;;;5019750;28;20037;-70
2022/08/07 12:21:43;;;;;;;6.97;2.03;;;;;;;;;;5012766;28;20565;-70
2022/08/07 12:24:14;;;;;;;4.30;1.75;;;;;;;;;;5015978;28;20056;-71
2022/08/07 12:26:42;;;;;;;4.63;1.92;;;;;;;;;;5031799;28;20218;-69
2022/08/07 12:29:07;;;;;;;4.93;1.98;;;;;;;;;;5014573;28;20033;-70
2022/08/07 12:31:37;;;;;;;5.30;1.77;;;;;;;;;;5022928;28;20063;-69
2022/08/07 12:34:05;;;;;;;4.38;1.77;;;;;;;;;;5015888;28;20036;-69
2022/08/07 12:36:32;;;;;;;4.45;1.70;;;;;;;;;;5016940;28;20400;-69
2022/08/07 12:38:58;;;;;;;4.47;1.92;;;;;;;;;;5017320;28;20125;-70
2022/08/07 12:41:24;;;;;;;4.78;1.65;;;;;;;;;;5017499;28;20660;-69
2022/08/07 12:43:51;;;;;;;3.75;1.80;;;;;;;;;;5015429;28;20488;-69
2022/08/07 12:46:57;;;;;;;4.30;1.65;;;;;;;;;;5020251;28;21851;-70
2022/08/07 12:49:32;;;;;;;4.57;1.98;;;;;;;;;;4982356;28;20497;-70
2022/08/07 12:52:24;;;;;;;4.70;1.80;;;;;;;;;;4966755;28;20437;-70
2022/08/07 12:54:56;;;;;;;3.13;1.77;;;;;;;;;;4959972;28;20576;-71
2022/08/07 12:57:26;;;;;;;6.53;2.10;;;;;;;;;;5014545;27;20052;-69
2022/08/07 12:59:52;;;;;;;3.22;1.75;;;;;;;;;;5008946;27;20036;-68
2022/08/07 13:02:29;;;;;;;4.35;1.95;;;;;;;;;;5010773;28;20051;-69
2022/08/07 13:05:13;;;;;;;3.40;1.70;;;;;;;;;;5014113;28;20036;-69
2022/08/07 13:07:45;;;;;;;5.43;1.85;;;;;;;;;;5019361;28;20044;-67
2022/08/07 13:10:13;;;;;;;8.32;2.20;;;;;;;;;;5012474;28;20285;-68
2022/08/07 13:12:58;;;;;;;4.40;1.90;;;;;;;;;;5012209;28;20545;-70
2022/08/07 13:15:41;;;;;;;4.20;1.95;;;;;;;;;;5014907;28;20353;-70
2022/08/07 13:18:09;;;;;;;5.55;2.15;;;;;;;;;;5027769;28;21499;-70
2022/08/07 13:20:38;;;;;;;5.13;1.85;;;;;;;;;;5014232;28;20036;-68
2022/08/07 13:23:05;;;;;;;4.00;1.63;;;;;;;;;;5014387;28;20302;-69
2022/08/07 13:25:36;;;;;;;4.43;1.90;;;;;;;;;;5014261;28;20594;-68
2022/08/07 13:28:03;;;;;;;2.92;1.58;;;;;;;;;;5015616;28;20215;-70
2022/08/07 13:30:30;;;;;;;5.55;2.15;;;;;;;;;;5019903;28;20051;-69
2022/08/07 13:33:14;;;;;;;5.45;1.75;;;;;;;;;;5017007;28;22345;-67
2022/08/07 13:35:41;;;;;;;4.25;1.88;;;;;;;;;;5017995;28;20559;-68
2022/08/07 13:38:16;;;;;;;2.92;1.70;;;;;;;;;;5022053;28;20033;-68
2022/08/07 13:40:48;;;;;;;5.35;2.00;;;;;;;;;;5017758;28;20326;-68
2022/08/07 13:43:14;;;;;;;4.38;1.40;;;;;;;;;;5018542;28;20373;-68
2022/08/07 13:45:41;;;;;;;5.47;1.58;;;;;;;;;;5017005;28;20054;-70
2022/08/07 13:48:07;;;;;;;4.82;1.98;;;;;;;;;;5018237;28;20032;-69
2022/08/07 13:50:37;;;;;;;4.95;1.73;;;;;;;;;;5013603;28;20626;-68
2022/08/07 13:53:04;;;;;;;6.13;1.80;;;;;;;;;;5016055;28;20611;-69
2022/08/07 13:55:29;;;;;;;5.22;1.85;;;;;;;;;;5017675;28;20074;-75
2022/08/07 13:58:59;;;;;;;4.53;1.80;;;;;;;;;;5021908;28;20040;-75
2022/08/07 14:00:52;;;;;;;5.05;1.85;;;;;;;;;;5019320;28;20581;-76
2022/08/07 14:03:18;;;;;;;5.60;1.90;;;;;;;;;;5020347;28;21476;-75
2022/08/07 14:05:45;;;;;;;4.90;2.00;;;;;;;;;;5016983;28;20634;-72
2022/08/07 14:08:10;;;;;;;5.05;2.00;;;;;;;;;;5007798;28;20333;-75
2022/08/07 14:10:36;;;;;;;5.60;2.10;;;;;;;;;;5019929;28;20029;-74
2022/08/07 14:13:03;;;;;;;4.97;2.13;;;;;;;;;;5016540;28;20385;-75
2022/08/07 14:15:35;;;;;;;6.70;2.03;;;;;;;;;;5028115;28;20093;-75
2022/08/07 14:18:05;;;;;;;4.93;2.00;;;;;;;;;;5019767;28;20033;-74
2022/08/07 14:20:33;;;;;;;6.00;1.95;;;;;;;;;;5020546;28;20041;-74
2022/08/07 14:23:06;;;;;;;4.95;1.80;;;;;;;;;;5022277;28;20545;-77
2022/08/07 14:25:35;;;;;;;6.20;1.73;;;;;;;;;;5018862;28;20475;-76
2022/08/07 14:28:06;;;;;;;4.70;2.00;;;;;;;;;;5032090;28;20115;-77
2022/08/07 14:30:33;;;;;;;4.82;1.98;;;;;;;;;;5034331;28;20032;-78
2022/08/07 14:33:03;;;;;;;4.70;2.10;;;;;;;;;;5021323;28;20254;-76
2022/08/07 14:35:30;;;;;;;6.18;2.40;;;;;;;;;;5022407;28;20102;-76
2022/08/07 14:37:57;;;;;;;7.93;2.83;;;;;;;;;;5020352;28;20451;-76
2022/08/07 14:40:23;;;;;;;5.15;2.40;;;;;;;;;;5024327;28;20092;-74
2022/08/07 14:42:54;;;;;;;5.95;3.00;;;;;;;;;;5020784;28;20075;-75
2022/08/07 14:45:20;;;;;;;5.50;2.40;;;;;;;;;;5037321;28;20543;-75
2022/08/07 14:47:46;;;;;;;4.53;2.10;;;;;;;;;;5028157;28;20093;-76
2022/08/07 14:50:17;;;;;;;6.35;2.20;;;;;;;;;;5023830;28;20036;-76
2022/08/07 14:52:42;;;;;;;;;;;;;;;;;;5023525;28;22248;-73
2022/08/07 14:55:08;;;;;;;7.63;2.20;;;;;;;;;;5042640;28;20009;-77
2022/08/07 14:57:35;;;;;;;7.25;2.13;;;;;;;;;;5027541;28;20818;-75
2022/08/07 15:00:03;;;;;;;6.10;2.30;;;;;;;;;;5041381;28;20540;-77
2022/08/07 15:02:29;;;;;;;6.78;2.30;;;;;;;;;;5025353;28;20051;-75